KGCM

Claremore Regional Airport

Claremore, Oklahoma, USA
METAR KGCM 201955Z AUTO 35008KT 305V015 10SM CLR 20/03 A3028 RMK AO2 TSNO
Observed Flight Rules
Oct-20 @ 19:55 UTC (27 minutes ago) Visual Flight Rules
Wind Visibility Clouds
350° at 8 knots 10 miles
  • Clear skies
Temperatures Readings
Current 20°C / 68°F
Dewpoint 3°C / 37°F
Humidity 33%
Altimeter 30.28" Hg
Pressure 1025 hPa
Elevation 221
METAR KGCM 201955Z AUTO 35008KT 305V015 10SM CLR 20/03 A3028 RMK AO2 TSNO
Observed Flight Rules
Oct-20 @ 19:55 UTC
(27 minutes ago)
VFR
Wind Visibility
350° at 8 knots 10 miles
Clouds
  • Clear skies
Temperature Dewpoint
20°C / 68°F 3°C / 37°F
Humidity Altimeter Pressure
33% 30.28" Hg 1025 hPa